Latest Weather Observations for Sheoaks

IDV60901

Issued at 4:01 pm EDT Sunday 24 October 2021 (issued every 10 minutes, with the page automatically refreshed every 10 minutes)

About weather observations | Map of Melbourne area stations | Latest observations for Melbourne area | Other Formats
Station Details ID: 087168 Name: SHEOAKS Lat: -37.91 Lon: 144.13 Height: 236.7 m
Data from the previous 72 hours. | See also: Recent months at Sheoaks
Date/Time
EDT
Temp
°C
App
Temp
°C
Dew
Point
°C
Rel
Hum
%
Delta-T
°C
Wind Press
QNH
hPa
Press
MSL
hPa
Rain since
9am
mm
Dir  Spd
km/h
Gust
km/h
Spd
kts
Gust
kts
24/04:00pm 13.1 8.2 4.3 55 4.0 SSW 19 32 10 17 1022.0 1022.0 0.0
24/03:30pm 12.6 8.2 4.8 59 3.6 SW 17 32 9 17 1022.2 1022.2 0.0
24/03:00pm 13.7 8.8 5.3 57 4.0 SW 20 37 11 20 1022.2 1022.2 0.0
24/02:30pm 13.2 9.2 2.7 49 4.7 SW 13 26 7 14 1022.4 1022.4 0.0
24/02:00pm 13.9 9.3 3.9 51 4.6 WSW 17 32 9 17 1022.3 1022.3 0.0
24/01:30pm 12.8 8.0 2.6 50 4.5 WSW 17 30 9 16 1022.6 1022.6 0.0
24/01:00pm 14.1 10.2 5.5 56 4.1 SW 15 28 8 15 1022.8 1022.8 0.0
24/12:30pm 13.2 8.9 5.1 58 3.8 SW 17 33 9 18 1022.9 1022.9 0.0
24/12:00pm 11.5 7.0 4.3 61 3.3 SW 17 26 9 14 1023.1 1023.1 0.0
24/11:30am 13.0 9.2 5.9 62 3.4 SW 15 24 8 13 1023.2 1023.2 0.0
24/11:00am 10.2 6.8 6.0 75 2.0 SSW 13 19 7 10 1023.4 1023.4 0.0
24/10:30am 10.7 7.2 7.2 79 1.7 S 15 24 8 13 1023.3 1023.3 0.0
24/10:00am 9.7 6.0 6.4 80 1.5 SSW 15 22 8 12 1023.4 1023.4 0.0
24/09:30am 9.7 6.9 7.0 83 1.3 SW 11 17 6 9 1023.3 1023.3 0.0
24/09:00am 9.3 6.4 6.6 83 1.3 WSW 11 17 6 9 1023.3 1023.3 16.8
24/08:30am 8.8 6.3 6.4 85 1.1 WSW 9 17 5 9 1023.0 1023.0 16.8
24/08:00am 8.8 5.7 7.3 90 0.7 WSW 13 19 7 10 1022.4 1022.4 16.8
24/07:30am 7.8 4.6 6.7 93 0.5 WSW 13 20 7 11 1022.3 1022.3 16.8
24/07:00am 6.9 3.1 6.0 94 0.4 W 15 20 8 11 1022.1 1022.1 16.8
24/06:30am 6.7 3.3 5.8 94 0.4 W 13 20 7 11 1021.7 1021.6 16.8
24/06:00am 7.0 4.0 6.1 94 0.4 W 11 17 6 9 1021.7 1021.6 16.8
24/05:30am 7.1 3.7 6.0 93 0.5 W 13 19 7 10 1021.4 1021.3 16.8
24/05:00am 7.3 4.3 6.2 93 0.5 W 11 17 6 9 1021.2 1021.1 16.8
24/04:30am 7.3 3.9 6.1 92 0.6 W 13 17 7 9 1021.1 1021.0 16.8
24/04:00am 7.8 4.9 6.6 92 0.6 WSW 11 20 6 11 1021.1 1021.0 16.8
24/03:30am 7.9 5.5 6.8 93 0.5 WSW 9 17 5 9 1021.1 1021.0 16.8
24/03:00am 7.8 4.6 6.7 93 0.5 W 13 19 7 10 1021.2 1021.1 16.8
24/02:30am 7.5 4.2 6.4 93 0.5 W 13 19 7 10 1021.3 1021.2 16.8
24/02:00am 7.1 4.1 5.9 92 0.5 W 11 15 6 8 1021.5 1021.4 16.8
24/01:30am 7.3 4.3 5.9 91 0.6 W 11 15 6 8 1021.6 1021.5 16.8
24/01:00am 8.0 5.1 6.6 91 0.7 WSW 11 17 6 9 1021.8 1021.8 16.8
24/12:30am 8.1 5.2 6.6 90 0.7 W 11 17 6 9 1021.8 1021.8 16.8
24/12:00am 7.7 5.1 6.0 89 0.8 W 9 15 5 8 1021.6 1021.5 16.8
 
Date/Time
EDT
Temp
°C
App
Temp
°C
Dew
Point
°C
Rel
Hum
%
Delta-T
°C
Wind Press
QNH
hPa
Press
MSL
hPa
Rain since
9am
mm
Dir  Spd
km/h
Gust
km/h
Spd
kts
Gust
kts
23/11:30pm 7.8 5.2 5.9 88 0.9 WSW 9 15 5 8 1021.6 1021.5 16.8
23/11:00pm 8.2 5.2 6.0 86 1.0 W 11 17 6 9 1021.7 1021.6 16.8
23/10:30pm 8.3 5.3 6.1 86 1.0 W 11 15 6 8 1021.6 1021.5 16.8
23/10:00pm 8.3 6.0 5.8 84 1.1 WSW 7 13 4 7 1021.5 1021.4 16.8
23/09:30pm 8.8 6.6 6.4 85 1.1 WSW 7 11 4 6 1021.1 1021.0 16.8
23/09:00pm 8.6 6.6 6.2 85 1.1 WSW 6 9 3 5 1020.8 1020.7 16.8
23/08:30pm 9.1 6.6 6.7 85 1.1 SW 9 13 5 7 1020.2 1020.2 16.8
23/08:00pm 9.4 6.7 7.2 86 1.0 SW 11 17 6 9 1019.7 1019.7 16.8
23/07:30pm 10.4 7.8 9.3 93 0.6 SW 13 19 7 10 1019.1 1019.1 16.8
23/07:00pm 10.9 9.9 10.4 97 0.3 E 6 9 3 5 1018.6 1018.6 16.8
23/06:30pm 11.0 9.8 10.4 96 0.3 SE 7 9 4 5 1018.2 1018.2 16.8
23/06:00pm 11.2 9.7 10.7 97 0.3 SSW 9 17 5 9 1017.9 1017.8 16.8
23/05:30pm 10.9 10.3 10.4 97 0.3 SSE 4 7 2 4 1017.6 1017.5 16.8
23/05:00pm 11.1 11.0 10.8 98 0.2 E 2 4 1 2 1017.3 1017.2 16.2
23/04:30pm 10.9 10.4 10.6 98 0.2 S 4 7 2 4 1017.3 1017.2 16.2
23/04:00pm 10.4 9.1 10.1 98 0.2 S 7 17 4 9 1017.3 1017.2 16.0
23/03:30pm 10.2 7.8 9.9 98 0.2 SSW 13 20 7 11 1017.3 1017.2 11.8
23/03:00pm 11.6 10.0 11.4 99 0.1 SE 11 15 6 8 1016.6 1016.5 10.2
23/02:30pm 11.0 9.9 10.7 98 0.2 SSW 7 13 4 7 1016.9 1016.8 9.6
23/02:00pm 10.7 9.7 10.4 98 0.2 S 6 9 3 5 1016.9 1016.8 6.8
23/01:30pm 10.7 9.7 10.2 97 0.3 SSE 6 9 3 5 1016.7 1016.6 4.4
23/01:00pm 11.2 9.3 10.6 96 0.3 SSE 11 15 6 8 1016.3 1016.2 1.2
23/12:30pm 12.0 11.1 11.4 96 0.3 S 7 13 4 7 1016.2 1016.1 0.8
23/12:00pm 11.8 11.5 11.3 97 0.3 SSW 4 6 2 3 1016.2 1016.1 0.8
23/11:30am 11.2 10.3 10.7 97 0.3 SSW 6 11 3 6 1016.3 1016.2 0.2
23/11:00am 11.0 9.9 10.5 97 0.3 S 7 11 4 6 1016.1 1016.0 0.0
23/10:30am 11.7 10.7 11.1 96 0.3 SW 7 13 4 7 1016.0 1015.9 0.0
23/10:00am 11.8 10.5 11.3 97 0.3 W 9 15 5 8 1015.8 1015.8 0.0
23/09:30am 11.6 10.3 11.3 98 0.2 WSW 9 15 5 8 1015.7 1015.7 0.0
23/09:00am 11.6 10.3 11.4 99 0.1 SSW 9 15 5 8 1015.4 1015.4 -
23/08:30am 11.8 11.0 11.8 100 0.0 SSW 7 11 4 6 1015.2 1015.2 -
23/08:00am 11.0 10.2 11.0 100 0.0 SSW 6 9 3 5 1015.0 1015.0 -
23/07:30am 10.9 10.4 10.9 100 0.0 WSW 4 7 2 4 1014.9 1014.9 -
23/07:00am 10.8 10.3 10.8 100 0.0 SW 4 7 2 4 1014.6 1014.6 -
23/06:30am 10.7 9.8 10.7 100 0.0 S 6 9 3 5 1014.1 1014.0 6.0
23/06:00am 10.7 8.9 10.7 100 0.0 SSW 11 17 6 9 1014.1 1014.0 5.8
23/05:30am 11.2 10.4 11.2 100 0.0 SSE 6 9 3 5 1014.1 1014.0 5.6
23/05:00am 11.3 10.6 11.3 100 0.0 SSW 6 9 3 5 1014.2 1014.1 5.6
23/04:30am 11.4 11.8 11.4 100 0.0 CALM 0 0 0 0 1014.0 1013.9 5.6
23/04:00am 11.4 11.8 11.4 100 0.0 CALM 0 4 0 2 1014.0 1013.9 5.6
23/03:30am 11.5 10.8 11.5 100 0.0 SSW 6 7 3 4 1014.0 1013.9 5.4
23/03:00am 11.6 11.0 11.6 100 0.0 SSW 6 9 3 5 1014.0 1013.9 5.4
23/02:30am 11.5 11.2 11.5 100 0.0 SW 4 6 2 3 1014.2 1014.1 5.4
23/02:00am 11.4 10.1 11.4 100 0.0 SSW 9 15 5 8 1014.2 1014.1 5.4
23/01:30am 11.7 10.1 11.7 100 0.0 S 11 17 6 9 1014.5 1014.4 5.2
23/01:00am 12.1 12.0 12.1 100 0.0 SSE 4 7 2 4 1014.6 1014.6 5.0
23/12:30am 12.1 11.6 12.1 100 0.0 S 6 9 3 5 1014.7 1014.7 5.0
23/12:00am 12.2 11.6 12.2 100 0.0 S 7 11 4 6 1014.6 1014.6 3.4
 
Date/Time
EDT
Temp
°C
App
Temp
°C
Dew
Point
°C
Rel
Hum
%
Delta-T
°C
Wind Press
QNH
hPa
Press
MSL
hPa
Rain since
9am
mm
Dir  Spd
km/h
Gust
km/h
Spd
kts
Gust
kts
22/11:30pm 12.6 12.3 12.6 100 0.0 SSW 6 9 3 5 1014.7 1014.7 3.4
22/11:00pm 12.5 12.0 12.5 100 0.0 SW 7 9 4 5 1014.7 1014.7 3.4
22/10:30pm 12.5 12.9 12.5 100 0.0 SSW 2 6 1 3 1014.4 1014.3 1.6
22/10:00pm 12.5 12.5 12.5 100 0.0 WSW 4 7 2 4 1014.4 1014.3 1.6
22/09:30pm 12.6 12.2 12.4 99 0.1 S 6 9 3 5 1014.4 1014.3 1.6
22/09:00pm 12.8 12.3 12.5 98 0.2 WSW 7 13 4 7 1014.4 1014.3 1.6
22/08:30pm 12.8 12.2 12.3 97 0.3 SSE 7 13 4 7 1013.3 1013.2 1.2
22/08:00pm 13.2 12.3 12.6 96 0.3 ESE 9 11 5 6 1013.0 1012.9 1.2
22/07:30pm 13.6 12.7 12.7 94 0.5 ESE 9 13 5 7 1012.5 1012.4 1.2
22/07:00pm 14.2 13.0 12.9 92 0.7 SE 11 19 6 10 1012.7 1012.6 0.0
22/06:30pm 15.2 14.6 13.4 89 1.0 S 9 17 5 9 1012.8 1012.7 0.0
22/06:00pm 15.7 13.9 13.4 86 1.3 ESE 15 20 8 11 1011.9 1011.8 0.0
22/05:30pm 17.1 16.3 14.0 82 1.8 SSE 11 17 6 9 1011.7 1011.6 0.0
22/05:00pm 18.2 18.1 14.9 81 1.9 SE 9 13 5 7 1011.8 1011.7 0.0
22/04:30pm 18.4 17.9 14.9 80 2.1 SSE 11 15 6 8 1012.0 1011.9 0.0
22/04:00pm 19.0 18.9 14.9 77 2.4 SE 9 13 5 7 1012.0 1011.9 0.0
22/03:30pm 19.6 19.1 14.8 74 2.8 ESE 11 17 6 9 1012.1 1012.0 0.0
22/03:00pm 20.4 20.0 15.2 72 3.1 ESE 11 15 6 8 1012.2 1012.1 0.0
22/02:30pm 20.9 20.1 15.2 70 3.4 ESE 13 19 7 10 1012.5 1012.4 0.0
22/02:00pm 21.7 21.5 14.6 64 4.2 SSE 9 13 5 7 1012.8 1012.7 0.0
22/01:30pm 21.7 22.5 14.8 65 4.1 S 4 7 2 4 1013.0 1012.9 0.0
22/01:00pm 21.8 21.9 14.4 63 4.4 WNW 7 15 4 8 1013.1 1013.0 0.0
22/12:30pm 22.0 22.2 14.6 63 4.4 SSE 7 13 4 7 1013.2 1013.1 0.0
22/12:00pm 21.1 20.9 14.7 67 3.8 SE 9 15 5 8 1013.6 1013.5 0.0
22/11:30am 20.6 20.7 14.5 68 3.6 SE 7 11 4 6 1014.0 1013.9 0.0
22/11:00am 19.1 18.9 13.5 70 3.2 E 7 11 4 6 1014.3 1014.2 0.0
22/10:30am 19.1 18.6 13.9 72 3.0 E 9 13 5 7 1014.6 1014.6 0.0
22/10:00am 18.7 17.7 13.3 71 3.1 E 11 17 6 9 1014.8 1014.8 0.0
22/09:30am 17.2 16.0 12.7 75 2.5 ENE 11 15 6 8 1014.9 1014.9 0.0
22/09:00am 16.6 15.6 13.5 82 1.8 E 11 17 6 9 1014.9 1014.9 0.0
22/08:30am 15.6 15.4 14.6 94 0.6 ENE 9 13 5 7 1015.0 1015.0 -
22/08:00am 13.4 13.3 13.2 99 0.1 ENE 6 7 3 4 1015.0 1015.0 -
22/07:30am 11.2 10.7 10.9 98 0.2 NNE 4 7 2 4 1014.9 1014.9 -
22/07:00am 9.6 8.1 9.1 97 0.2 N 7 9 4 5 1014.9 1014.9 -
22/06:30am 9.4 8.0 8.8 96 0.3 N 6 6 3 3 1014.7 1014.7 -
22/06:00am 10.6 9.9 10.0 96 0.3 N 4 6 2 3 1014.7 1014.7 -
22/05:30am 10.7 10.0 9.9 95 0.4 N 4 6 2 3 1014.4 1014.3 -
22/05:00am 10.9 9.6 10.0 94 0.5 NNW 7 9 4 5 1014.5 1014.4 -
22/04:30am 11.1 10.0 10.0 93 0.6 N 6 7 3 4 1014.4 1014.3 0.0
22/04:00am 11.2 10.1 10.0 92 0.6 NNW 6 6 3 3 1014.5 1014.4 0.0
22/03:30am 11.6 10.5 10.0 90 0.8 NNW 6 7 3 4 1014.5 1014.4 0.0
22/03:00am 12.4 11.5 10.5 88 1.0 NW 6 7 3 4 1014.5 1014.4 0.0
22/02:30am 13.0 12.1 10.7 86 1.2 NW 6 9 3 5 1014.4 1014.3 0.0
22/02:00am 13.7 12.9 11.2 85 1.3 NW 6 11 3 6 1014.4 1014.3 0.0
22/01:30am 13.9 12.3 11.4 85 1.3 WNW 11 17 6 9 1014.8 1014.8 0.0
22/01:00am 14.1 12.5 11.6 85 1.4 WNW 11 17 6 9 1014.9 1014.9 0.0
22/12:30am 14.3 12.5 12.2 87 1.2 WNW 13 20 7 11 1015.0 1015.0 0.0
22/12:00am 14.2 13.0 11.7 85 1.4 WNW 9 15 5 8 1014.8 1014.8 0.0
 
Date/Time
EDT
Temp
°C
App
Temp
°C
Dew
Point
°C
Rel
Hum
%
Delta-T
°C
Wind Press
QNH
hPa
Press
MSL
hPa
Rain since
9am
mm
Dir  Spd
km/h
Gust
km/h
Spd
kts
Gust
kts
21/11:30pm 15.5 14.4 11.9 79 2.0 WNW 9 13 5 7 1014.5 1014.4 0.0
21/11:00pm 16.7 16.3 11.0 69 3.1 W 4 7 2 4 1014.4 1014.3 0.0
21/10:30pm 17.3 16.5 11.1 67 3.4 SW 6 9 3 5 1014.2 1014.1 0.0
21/10:00pm 17.9 16.6 11.2 65 3.7 NNE 9 11 5 6 1014.1 1014.0 0.0
21/09:30pm 18.1 16.5 11.4 65 3.7 NNE 11 13 6 7 1013.9 1013.8 0.0
21/09:00pm 18.0 16.4 11.6 66 3.5 NE 11 15 6 8 1013.5 1013.4 0.0
21/08:30pm 18.6 17.0 11.7 64 3.8 NNE 11 13 6 7 1013.5 1013.4 0.0
21/08:00pm 18.9 16.9 11.5 62 4.1 NNE 13 19 7 10 1013.3 1013.2 0.0
21/07:30pm 19.4 17.4 11.4 60 4.4 NNE 13 19 7 10 1013.1 1013.0 0.0
21/07:00pm 20.1 17.8 11.6 58 4.8 NE 15 22 8 12 1013.0 1012.9 0.0
21/06:30pm 20.4 18.5 11.9 58 4.8 NE 13 19 7 10 1012.9 1012.8 0.0
21/06:00pm 19.6 17.7 11.9 61 4.3 NE 13 19 7 10 1012.9 1012.8 0.0
21/05:30pm 19.8 18.4 12.1 61 4.3 NE 11 17 6 9 1012.8 1012.7 0.0
21/05:00pm 19.8 18.7 12.1 61 4.3 NE 9 13 5 7 1012.7 1012.6 0.0
21/04:30pm 20.1 17.9 12.1 60 4.5 NE 15 20 8 11 1012.6 1012.5 0.0

Latest Capital City Observations: Canberra | Sydney | Melbourne | Brisbane | Adelaide | Perth | Hobart | Darwin

Other formats

Comma delimited format used in spreadsheet applications
http://www.bom.gov.au/fwo/IDV60901/IDV60901.94863.axf

JavaScript Object Notation format (JSON) in row-major order
http://www.bom.gov.au/fwo/IDV60901/IDV60901.94863.json

Data quality

Most of these data are generated automatically and are frequently updated. Quality checks on data are not normally performed. It is possible for incorrect values to appear. Refer to information at About Latest Weather Observations and please check the disclaimer before using these data.